Time;durP1;ratioP1;P1;durP2;ratioP2;P2;SDS_P1;SDS_P2;PMS_P1;PMS_P2;Temp;Humidity;BMP_temperature;BMP_pressure;BME280_temperature;BME280_humidity;BME280_pressure;Samples;Min_cycle;Max_cycle;Signal;HPM_P1;HPM_P2
2023/05/01 14:00:57;;;;;;;2.57;1.60;;;;;;;;;;6307803;27;1511356;-77
2023/05/01 14:04:01;;;;;;;4.13;2.00;;;;;;;;;;6343494;27;20389;-78
2023/05/01 14:07:01;;;;;;;3.85;1.95;;;;;;;;;;6333643;28;20268;-78
2023/05/01 14:10:02;;;;;;;6.85;2.67;;;;;;;;;;6332402;28;20016;-78
2023/05/01 14:13:04;;;;;;;4.07;2.28;;;;;;;;;;6329416;28;20093;-77
2023/05/01 14:16:11;;;;;;;3.47;1.77;;;;;;;;;;6332090;28;20311;-76
2023/05/01 14:19:14;;;;;;;2.42;1.75;;;;;;;;;;6334492;28;20106;-77
2023/05/01 14:22:15;;;;;;;2.30;1.60;;;;;;;;;;6334704;28;20081;-77
2023/05/01 14:25:16;;;;;;;4.17;1.63;;;;;;;;;;6330320;28;20011;-77
2023/05/01 14:28:16;;;;;;;4.72;1.98;;;;;;;;;;6330269;28;20031;-77
2023/05/01 14:31:16;;;;;;;;;;;;;;;;;;6334442;28;20020;-77
2023/05/01 14:34:17;;;;;;;5.20;2.73;;;;;;;;;;6331962;28;19911;-77
2023/05/01 14:37:17;;;;;;;;;;;;;;;;;;6339510;28;20020;-77
2023/05/01 14:40:19;;;;;;;6.18;2.30;;;;;;;;;;6334679;28;19985;-77
2023/05/01 14:43:23;;;;;;;8.25;4.95;;;;;;;;;;6332018;28;20020;-77
2023/05/01 14:46:26;;;;;;;4.68;2.38;;;;;;;;;;6336834;28;20381;-78
2023/05/01 14:49:26;;;;;;;4.90;2.15;;;;;;;;;;6338010;28;20103;-76
2023/05/01 14:52:26;;;;;;;4.17;2.33;;;;;;;;;;6339045;28;20008;-76
2023/05/01 14:55:32;;;;;;;6.13;2.57;;;;;;;;;;6331476;28;20019;-77
2023/05/01 14:58:32;;;;;;;8.88;2.92;;;;;;;;;;6323435;28;20047;-77
2023/05/01 15:01:32;;;;;;;4.27;2.53;;;;;;;;;;6328028;28;20032;-81
2023/05/01 15:04:32;;;;;;;5.60;2.63;;;;;;;;;;6324945;28;20603;-82
2023/05/01 15:07:33;;;;;;;5.20;2.60;;;;;;;;;;6329229;28;20020;-80
2023/05/01 15:10:33;;;;;;;5.35;2.50;;;;;;;;;;6325087;28;20312;-80
2023/05/01 15:13:33;;;;;;;3.97;2.30;;;;;;;;;;6315828;28;20213;-80
2023/05/01 15:16:33;;;;;;;3.83;2.30;;;;;;;;;;6315891;28;20371;-81
2023/05/01 15:19:34;;;;;;;4.80;2.50;;;;;;;;;;6327417;28;20524;-81
2023/05/01 15:22:34;;;;;;;7.57;4.37;;;;;;;;;;6316822;28;20012;-81
2023/05/01 15:25:34;;;;;;;5.67;2.70;;;;;;;;;;6314866;28;20494;-81
2023/05/01 15:28:34;;;;;;;7.70;2.73;;;;;;;;;;6332927;28;20338;-81
2023/05/01 15:31:35;;;;;;;8.03;3.00;;;;;;;;;;6314525;28;20421;-81
2023/05/01 15:34:35;;;;;;;7.60;2.80;;;;;;;;;;6319447;28;20031;-80
2023/05/01 15:37:35;;;;;;;3.37;2.40;;;;;;;;;;6309600;28;20089;-80
2023/05/01 15:40:36;;;;;;;7.63;3.10;;;;;;;;;;6311481;28;20032;-82
2023/05/01 15:43:36;;;;;;;7.00;2.93;;;;;;;;;;6313064;28;20021;-80
2023/05/01 15:46:37;;;;;;;9.33;2.60;;;;;;;;;;6308814;28;20027;-79
2023/05/01 15:49:37;;;;;;;7.43;3.07;;;;;;;;;;6317908;28;20090;-80
2023/05/01 15:52:37;;;;;;;8.30;2.70;;;;;;;;;;6308042;28;20017;-79
2023/05/01 15:55:37;;;;;;;6.47;2.67;;;;;;;;;;6319631;28;20027;-82
2023/05/01 15:58:38;;;;;;;9.57;2.73;;;;;;;;;;6317474;28;20557;-81
2023/05/01 16:01:38;;;;;;;6.43;2.70;;;;;;;;;;6310572;28;20510;-80
2023/05/01 16:04:39;;;;;;;7.57;3.60;;;;;;;;;;6316720;28;20022;-81
2023/05/01 16:07:39;;;;;;;8.23;2.57;;;;;;;;;;6307006;28;20074;-81
2023/05/01 16:10:39;;;;;;;10.27;3.50;;;;;;;;;;6313333;28;20020;-81
2023/05/01 16:13:40;;;;;;;4.07;2.27;;;;;;;;;;6317272;28;20137;-81
2023/05/01 16:16:41;;;;;;;8.10;2.72;;;;;;;;;;6315443;28;20402;-81
2023/05/01 16:19:41;;;;;;;4.15;2.63;;;;;;;;;;6315244;28;20024;-81
2023/05/01 16:22:42;;;;;;;3.73;2.37;;;;;;;;;;6316346;28;20020;-81
2023/05/01 16:25:42;;;;;;;8.17;2.87;;;;;;;;;;6316173;28;20149;-81
2023/05/01 16:28:42;;;;;;;6.57;2.47;;;;;;;;;;6315328;28;20024;-81
2023/05/01 16:31:46;;;;;;;12.43;3.10;;;;;;;;;;6315812;28;20367;-81
2023/05/01 16:34:48;;;;;;;5.40;2.80;;;;;;;;;;6314934;28;20039;-80
2023/05/01 16:37:48;;;;;;;9.40;3.00;;;;;;;;;;6310459;28;20036;-78
2023/05/01 16:40:48;;;;;;;6.83;3.00;;;;;;;;;;6304369;28;20051;-80
2023/05/01 16:43:48;;;;;;;5.33;2.53;;;;;;;;;;6309542;28;20058;-81
2023/05/01 16:46:55;;;;;;;6.53;2.67;;;;;;;;;;6325337;28;20016;-80
2023/05/01 16:49:57;;;;;;;6.75;3.03;;;;;;;;;;6317466;28;20082;-79
2023/05/01 16:52:58;;;;;;;6.18;2.60;;;;;;;;;;6308653;28;20552;-80
2023/05/01 16:55:58;;;;;;;5.33;2.67;;;;;;;;;;6311096;28;20035;-79
2023/05/01 16:58:58;;;;;;;4.67;2.43;;;;;;;;;;6315021;28;20028;-79
2023/05/01 17:01:58;;;;;;;4.40;2.43;;;;;;;;;;6314748;28;20016;-81
2023/05/01 17:04:59;;;;;;;7.23;3.10;;;;;;;;;;6318651;28;20483;-81
2023/05/01 17:07:59;;;;;;;5.40;2.53;;;;;;;;;;6326472;28;20432;-82
2023/05/01 17:10:59;;;;;;;10.40;3.78;;;;;;;;;;6313165;28;20023;-81
2023/05/01 17:13:59;;;;;;;12.53;4.00;;;;;;;;;;6308964;28;20081;-81
2023/05/01 17:17:04;;;;;;;9.15;3.15;;;;;;;;;;6312536;28;20035;-80
2023/05/01 17:20:05;;;;;;;6.70;3.03;;;;;;;;;;6313632;28;20102;-80
2023/05/01 17:23:06;;;;;;;14.90;3.80;;;;;;;;;;6307894;28;20387;-80
2023/05/01 17:26:06;;;;;;;5.20;3.17;;;;;;;;;;6311390;28;20494;-80
2023/05/01 17:29:06;;;;;;;6.97;3.23;;;;;;;;;;6317496;28;20032;-81
2023/05/01 17:32:07;;;;;;;12.63;3.77;;;;;;;;;;6316335;28;20027;-81
2023/05/01 17:35:07;;;;;;;6.47;3.57;;;;;;;;;;6314480;28;20084;-80
2023/05/01 17:38:08;;;;;;;7.47;3.47;;;;;;;;;;6330168;28;20028;-80
2023/05/01 17:41:09;;;;;;;10.27;3.85;;;;;;;;;;6312741;28;20024;-80
2023/05/01 17:44:10;;;;;;;23.15;4.22;;;;;;;;;;6313491;28;20359;-81
2023/05/01 17:47:10;;;;;;;10.27;4.00;;;;;;;;;;6314499;28;20016;-81
2023/05/01 17:50:11;;;;;;;7.13;3.80;;;;;;;;;;6308329;28;20024;-81
2023/05/01 17:53:12;;;;;;;7.70;4.13;;;;;;;;;;6307632;28;20420;-81
2023/05/01 17:56:14;;;;;;;9.67;5.50;;;;;;;;;;6312512;28;20024;-80
2023/05/01 17:59:15;;;;;;;9.48;4.38;;;;;;;;;;6311425;28;20210;-79
2023/05/01 18:02:15;;;;;;;10.50;4.40;;;;;;;;;;6315648;28;20024;-79
2023/05/01 18:05:16;;;;;;;8.13;3.70;;;;;;;;;;6313436;28;20035;-78
2023/05/01 18:08:16;;;;;;;11.23;4.30;;;;;;;;;;6314433;28;20488;-80
2023/05/01 18:11:16;;;;;;;9.47;4.73;;;;;;;;;;6317412;28;20470;-80
2023/05/01 18:14:16;;;;;;;11.10;4.77;;;;;;;;;;6312866;28;20769;-81
2023/05/01 18:17:18;;;;;;;9.27;3.97;;;;;;;;;;6314529;28;20542;-79
2023/05/01 18:20:18;;;;;;;9.13;4.68;;;;;;;;;;6306675;28;20093;-79
2023/05/01 18:23:18;;;;;;;11.20;5.10;;;;;;;;;;6307863;28;20028;-79
2023/05/01 18:26:18;;;;;;;13.30;4.68;;;;;;;;;;6310738;28;20023;-79
2023/05/01 18:29:21;;;;;;;8.50;4.50;;;;;;;;;;6314226;28;20162;-76
2023/05/01 18:32:21;;;;;;;14.02;5.38;;;;;;;;;;6309943;28;20516;-76
2023/05/01 18:35:22;;;;;;;10.13;4.67;;;;;;;;;;6313069;28;20020;-76
2023/05/01 18:38:23;;;;;;;10.23;5.00;;;;;;;;;;6307807;28;20046;-76
2023/05/01 18:41:24;;;;;;;17.00;5.35;;;;;;;;;;6312359;28;20020;-76
2023/05/01 18:44:24;;;;;;;11.60;5.68;;;;;;;;;;6313145;28;20012;-76
2023/05/01 18:47:25;;;;;;;10.67;4.90;;;;;;;;;;6317975;28;20389;-76
2023/05/01 18:50:25;;;;;;;11.30;5.63;;;;;;;;;;6315409;28;20051;-76
2023/05/01 18:53:26;;;;;;;15.43;6.27;;;;;;;;;;6318676;28;20090;-76
2023/05/01 18:56:26;;;;;;;11.20;5.07;;;;;;;;;;6321513;28;20028;-75
2023/05/01 18:59:29;;;;;;;9.47;4.87;;;;;;;;;;6321328;28;20059;-75
2023/05/01 19:02:30;;;;;;;8.85;4.55;;;;;;;;;;6320612;28;20008;-75
2023/05/01 19:05:30;;;;;;;11.87;5.83;;;;;;;;;;6321574;28;20501;-76
2023/05/01 19:08:30;;;;;;;14.27;5.63;;;;;;;;;;6317591;28;20012;-76
2023/05/01 19:11:30;;;;;;;11.38;5.55;;;;;;;;;;6317955;28;20065;-76
2023/05/01 19:14:30;;;;;;;12.00;5.87;;;;;;;;;;6315481;28;20020;-76
2023/05/01 19:17:32;;;;;;;11.77;5.17;;;;;;;;;;6320047;28;20031;-76
2023/05/01 19:20:32;;;;;;;13.00;4.95;;;;;;;;;;6320760;28;20020;-76
2023/05/01 19:23:34;;;;;;;11.70;5.57;;;;;;;;;;6318931;28;20016;-76
2023/05/01 19:26:34;;;;;;;10.40;5.57;;;;;;;;;;6319481;28;20027;-76
2023/05/01 19:29:34;;;;;;;13.90;6.43;;;;;;;;;;6318917;28;20020;-77
2023/05/01 19:32:35;;;;;;;8.93;5.10;;;;;;;;;;6317610;28;20051;-77
2023/05/01 19:35:36;;;;;;;13.80;6.57;;;;;;;;;;6317028;28;20020;-77
2023/05/01 19:38:36;;;;;;;17.97;6.77;;;;;;;;;;6313970;28;20222;-77
2023/05/01 19:41:36;;;;;;;11.13;5.68;;;;;;;;;;6317313;28;20021;-77
2023/05/01 19:44:36;;;;;;;12.82;5.95;;;;;;;;;;6319949;28;20042;-77
2023/05/01 19:47:37;;;;;;;11.97;6.03;;;;;;;;;;6319476;28;20024;-77
2023/05/01 19:50:38;;;;;;;13.70;5.73;;;;;;;;;;6321258;28;20020;-77
2023/05/01 19:53:38;;;;;;;14.93;7.15;;;;;;;;;;6317624;28;20092;-76
2023/05/01 19:56:39;;;;;;;10.53;5.57;;;;;;;;;;6318341;28;20020;-76
2023/05/01 19:59:40;;;;;;;15.43;7.57;;;;;;;;;;6319090;28;20604;-76
2023/05/01 20:02:40;;;;;;;11.90;6.03;;;;;;;;;;6315126;28;20124;-77
2023/05/01 20:05:41;;;;;;;14.93;6.77;;;;;;;;;;6317662;28;20254;-76
2023/05/01 20:08:42;;;;;;;19.60;7.63;;;;;;;;;;6297845;28;20020;-77
2023/05/01 20:11:42;;;;;;;15.20;6.47;;;;;;;;;;6315469;28;20728;-76
2023/05/01 20:14:43;;;;;;;15.27;6.63;;;;;;;;;;6305617;28;20020;-77
2023/05/01 20:17:48;;;;;;;14.33;7.00;;;;;;;;;;6319889;28;20107;-76
2023/05/01 20:20:49;;;;;;;12.40;6.30;;;;;;;;;;6315704;28;20028;-76
2023/05/01 20:23:50;;;;;;;12.50;6.43;;;;;;;;;;6319953;28;20410;-77
2023/05/01 20:26:52;;;;;;;16.67;8.13;;;;;;;;;;6303955;28;20012;-77
2023/05/01 20:29:53;;;;;;;18.08;7.07;;;;;;;;;;6319803;28;20116;-77
2023/05/01 20:32:53;;;;;;;17.37;6.37;;;;;;;;;;6318057;28;20024;-76
2023/05/01 20:35:54;;;;;;;12.17;5.93;;;;;;;;;;6316272;28;20024;-76
2023/05/01 20:38:56;;;;;;;16.27;7.37;;;;;;;;;;6316836;28;20548;-76
2023/05/01 20:41:57;;;;;;;16.00;7.10;;;;;;;;;;6318298;28;20027;-77
2023/05/01 20:44:58;;;;;;;14.95;7.10;;;;;;;;;;6318477;28;20099;-76
2023/05/01 20:47:58;;;;;;;14.30;7.63;;;;;;;;;;6319037;28;20061;-77
2023/05/01 20:50:59;;;;;;;13.03;6.93;;;;;;;;;;6313144;28;20024;-80
2023/05/01 20:53:59;;;;;;;17.03;8.10;;;;;;;;;;6317344;28;20369;-80
2023/05/01 20:57:02;;;;;;;16.57;9.00;;;;;;;;;;6303856;28;20024;-80
2023/05/01 21:00:03;;;;;;;12.68;6.18;;;;;;;;;;6306716;28;20486;-80
2023/05/01 21:03:03;;;;;;;14.48;7.25;;;;;;;;;;6287759;28;20013;-79
2023/05/01 21:06:04;;;;;;;16.53;9.33;;;;;;;;;;6290039;28;20016;-79
2023/05/01 21:09:05;;;;;;;53.67;21.50;;;;;;;;;;6299271;28;20070;-81
2023/05/01 21:12:06;;;;;;;50.57;20.87;;;;;;;;;;6299441;28;20023;-81
2023/05/01 21:15:06;;;;;;;30.80;13.23;;;;;;;;;;6301852;28;20020;-80
2023/05/01 21:18:07;;;;;;;18.65;7.45;;;;;;;;;;6292992;28;20043;-81
2023/05/01 21:21:08;;;;;;;19.15;9.40;;;;;;;;;;6272920;28;20489;-81
2023/05/01 21:24:13;;;;;;;16.43;8.20;;;;;;;;;;6299940;28;20023;-81
2023/05/01 21:27:13;;;;;;;17.75;8.30;;;;;;;;;;6297515;28;20613;-81
2023/05/01 21:30:14;;;;;;;19.50;8.98;;;;;;;;;;6296396;28;20037;-81
2023/05/01 21:33:16;;;;;;;27.08;11.60;;;;;;;;;;6291813;28;20385;-80
2023/05/01 21:36:16;;;;;;;23.67;10.45;;;;;;;;;;6290974;28;20421;-80
2023/05/01 21:39:17;;;;;;;20.03;9.40;;;;;;;;;;6277341;28;20033;-80
2023/05/01 21:42:17;;;;;;;24.65;12.70;;;;;;;;;;6294872;28;20024;-79
2023/05/01 21:45:18;;;;;;;19.27;9.30;;;;;;;;;;6294706;28;20028;-80
2023/05/01 21:48:18;;;;;;;19.63;8.53;;;;;;;;;;6299679;28;20025;-81
2023/05/01 21:51:24;;;;;;;19.13;8.60;;;;;;;;;;6278913;28;20028;-81
2023/05/01 21:54:27;;;;;;;22.77;9.07;;;;;;;;;;6291458;28;20024;-81
2023/05/01 21:57:28;;;;;;;20.83;9.82;;;;;;;;;;6302816;28;20506;-80
2023/05/01 22:00:30;;;;;;;20.75;9.23;;;;;;;;;;6299508;28;20040;-81
2023/05/01 22:03:31;;;;;;;19.73;10.05;;;;;;;;;;6292027;28;20056;-81
2023/05/01 22:06:31;;;;;;;22.98;10.73;;;;;;;;;;6326050;28;20147;-81
2023/05/01 22:09:31;;;;;;;19.83;10.03;;;;;;;;;;6316616;28;20020;-81
2023/05/01 22:12:32;;;;;;;19.92;9.48;;;;;;;;;;6317907;28;20113;-81
2023/05/01 22:15:32;;;;;;;23.80;9.70;;;;;;;;;;6317263;28;20024;-80
2023/05/01 22:18:32;;;;;;;20.48;10.52;;;;;;;;;;6318722;28;20031;-81
2023/05/01 22:21:32;;;;;;;18.63;10.88;;;;;;;;;;6308464;28;20580;-80
2023/05/01 22:24:35;;;;;;;19.03;10.00;;;;;;;;;;6323768;28;20451;-80
2023/05/01 22:27:35;;;;;;;23.17;10.63;;;;;;;;;;6321842;28;20027;-80
2023/05/01 22:30:37;;;;;;;21.45;10.88;;;;;;;;;;6315815;28;20048;-81
2023/05/01 22:33:38;;;;;;;22.73;10.63;;;;;;;;;;6325604;28;20508;-80
2023/05/01 22:36:38;;;;;;;24.30;11.67;;;;;;;;;;6304775;28;20016;-80
2023/05/01 22:39:38;;;;;;;19.65;8.98;;;;;;;;;;6324533;28;20036;-81
2023/05/01 22:42:38;;;;;;;19.07;9.30;;;;;;;;;;6321289;28;20053;-80
2023/05/01 22:45:38;;;;;;;20.67;8.43;;;;;;;;;;6327604;28;20058;-80
2023/05/01 22:48:39;;;;;;;18.10;7.77;;;;;;;;;;6325927;28;20024;-80
2023/05/01 22:51:39;;;;;;;21.27;8.43;;;;;;;;;;6322154;28;20692;-80
2023/05/01 22:54:39;;;;;;;21.35;8.82;;;;;;;;;;6311019;28;20300;-80
2023/05/01 22:57:40;;;;;;;23.30;10.05;;;;;;;;;;6297526;28;20277;-80
2023/05/01 23:00:40;;;;;;;24.27;9.60;;;;;;;;;;6320737;28;20078;-80
2023/05/01 23:03:40;;;;;;;17.95;9.18;;;;;;;;;;6330016;28;20028;-80
2023/05/01 23:06:40;;;;;;;14.90;8.83;;;;;;;;;;6320102;28;20019;-80
2023/05/01 23:09:41;;;;;;;22.77;8.87;;;;;;;;;;6322007;28;20084;-81
2023/05/01 23:12:42;;;;;;;19.43;9.87;;;;;;;;;;6299875;28;20028;-81
2023/05/01 23:15:43;;;;;;;25.23;10.95;;;;;;;;;;6321007;28;20439;-82
2023/05/01 23:18:44;;;;;;;20.58;9.48;;;;;;;;;;6303894;28;20062;-82
2023/05/01 23:21:44;;;;;;;20.98;9.77;;;;;;;;;;6321366;28;20030;-81
2023/05/01 23:24:47;;;;;;;17.83;8.83;;;;;;;;;;6321941;28;20625;-82
2023/05/01 23:27:50;;;;;;;17.45;9.40;;;;;;;;;;6302526;28;20549;-80
2023/05/01 23:31:00;;;;;;;17.15;9.07;;;;;;;;;;6318158;28;20027;-80
2023/05/01 23:34:01;;;;;;;16.95;9.10;;;;;;;;;;6313498;28;20024;-81
2023/05/01 23:37:01;;;;;;;22.98;10.40;;;;;;;;;;6326172;28;20071;-80
2023/05/01 23:40:01;;;;;;;22.10;10.13;;;;;;;;;;6309976;28;20025;-80
2023/05/01 23:43:01;;;;;;;16.70;8.10;;;;;;;;;;6306745;28;20015;-80
2023/05/01 23:46:02;;;;;;;19.30;8.88;;;;;;;;;;6309840;28;20016;-80
2023/05/01 23:49:02;;;;;;;20.88;8.32;;;;;;;;;;6317516;28;20020;-80
2023/05/01 23:52:03;;;;;;;23.23;9.03;;;;;;;;;;6321156;28;20024;-80
2023/05/01 23:55:04;;;;;;;21.07;9.57;;;;;;;;;;6323603;28;20024;-79
2023/05/01 23:58:04;;;;;;;20.77;9.20;;;;;;;;;;6309710;28;20052;-80
